New Helena, Nebraska
Current Conditions -  °F | °C
As of 11:53 PM on Tuesday 21 Oct 2014 (Local Time) from KBBW Reporting Station
Clear Clear  
Wind Chill: 61°   Ceiling: Unl
Heat Index: 61°   Visibility: 10mi
Dew Point: 54°   Wind: 12mph
Humidity: 78%   Direction: 140°SE
Pressure: 29.93"   Gusts: NA
Location:  41.6612°N, 99.7844°W
Report Text: KBBW 220453Z AUTO 14010KT 10SM CLR 16/12 A2993 RMK AO2 SLP120 T01610122
Loading
Personal Weather Stations






























Interactive Weather Map
Tropical Storm Tracking
New forecast layout! Learn more

10-Day Weather Forecast

Advertisements
Track Severe Weather on mobile